Cadott, WI (54727)

9:14 AM CDT on March 26, 2017 (GMT -0500)
Clear Creek Estates/Sigel Township/Cadott, WI | | Change Station

Elev 1007 ft 44.91 °N, 91.14 °W | Updated 31 seconds ago

Overcast
Overcast
35.1 °F
Feels Like 35 °F
N
3.0
Wind Variable Wind from ENE

Today
High -- | Low -- °F
--% Chance of Precip.
Yesterday
High -- | Low -- °F
Precip. -- in
Pressure 29.96 in
Visibility 4.0 miles
Clouds Overcast 600 ft
Windchill 35 °F
Dew Point 34 °F
Humidity 98%
Rainfall 0.00 in
Snow Depth Not available.
6:55 AM 7:25 PM
Waning Crescent, 3% visible
METAR KEAU 261356Z 06006KT 4SM UP BR OVC006 02/02 A2993 RMK AO2 RAB30E43UPB43 CIG 004V009 SLP143 P0001 T00220017 $
Pressure 29.96 in
Visibility 4.0 miles
Clouds Overcast 600 ft
Windchill 35 °F
Dew Point 34 °F
Humidity 98%
Rainfall 0.00 in
Snow Depth Not available.
6:55 AM 7:25 PM
Waning Crescent, 3% visible
METAR KEAU 261356Z 06006KT 4SM UP BR OVC006 02/02 A2993 RMK AO2 RAB30E43UPB43 CIG 004V009 SLP143 P0001 T00220017 $

Get Severe Weather Alerts

Thanks for signing up!

Be on the lookout for a verification email in your inbox.

You'll start receiving the daily forecast at 8 AM.

×

10-Day Weather Forecast

Almanac

Astronomy

Mar. 26, 2017 Rise Set
Actual Time
Civil Twilight
Nautical Twilight
Astronomical Twilight
Moon
Length of Visible Light
Length of Day
Tomorrow will be .
, % of the Moon is Illuminated

Today's Extremes

State Highs State Lows

Community

WunderPhotos

Upload Photos

1,962,540 photos uploaded!

WunderBlog® & News

Nearby

Air Quality

  Air Quality AQ Index Pollutant
Not available.

Snow Depth

Station Depth Elevation

Earthquake Activity

City Distance Mag. Time & Date
Minimum magnitude displayed is 2.5.

Earthquake Activity

City Distance Mag. Time & Date
Minimum magnitude displayed is 2.5.

Coastal Water Temperatures

Place Temperature

Stations

Nearby Weather Stations

Station Location Temp. Windchill Dew Point Humidity Wind Precip. Elev Updated Type
                   

Watches & Warnings

There are currently no watches in effect.